This is the latest recevied weather packets stored in our database for station/object PY2FLB-13. If no packets are shown the sender has not sent any weather packets the latest 10 day(s).
| Time | Temp. | Humidity | Pressure | Rain* | Wind** | Luminosity | Snow |
|---|---|---|---|---|---|---|---|
| 1778002668 | 30° C | 38% | 1015.5 hPa | - | - | - | - |
| 1778002368 | 30° C | 38% | 1015.5 hPa | - | - | - | - |
| 1778002069 | 30° C | 37% | 1015.5 hPa | - | - | - | - |
| 1778001769 | 30° C | 37% | 1015.5 hPa | - | - | - | - |
| 1778001469 | 30° C | 40% | 1015.6 hPa | - | - | - | - |
| 1778001169 | 30° C | 39% | 1015.7 hPa | - | - | - | - |
| 1778000869 | 30° C | 39% | 1015.8 hPa | - | - | - | - |
| 1778000569 | 29.44° C | 40% | 1016 hPa | - | - | - | - |
| 1777999968 | 30° C | 38% | 1016 hPa | - | - | - | - |
| 1777999668 | 30° C | 39% | 1016 hPa | - | - | - | - |
| 1777999368 | 29.44° C | 40% | 1016.2 hPa | - | - | - | - |
| 1777999068 | 30° C | 40% | 1016.2 hPa | - | - | - | - |
| 1777998769 | 29.44° C | 40% | 1016.4 hPa | - | - | - | - |
| 1777998468 | 29.44° C | 42% | 1016.5 hPa | - | - | - | - |
| 1777998168 | 29.44° C | 41% | 1016.5 hPa | - | - | - | - |
| 1777997869 | 29.44° C | 41% | 1016.7 hPa | - | - | - | - |
| 1777997569 | 28.33° C | 45% | 1016.9 hPa | - | - | - | - |
| 1777997269 | 28.89° C | 42% | 1016.8 hPa | - | - | - | - |
| 1777996969 | 28.89° C | 42% | 1016.8 hPa | - | - | - | - |
| 1777996668 | 28.89° C | 42% | 1016.9 hPa | - | - | - | - |
| 1777996369 | 28.89° C | 43% | 1016.9 hPa | - | - | - | - |
| 1777996069 | 28.33° C | 45% | 1017.2 hPa | - | - | - | - |
| 1777995769 | 28.89° C | 43% | 1017.2 hPa | - | - | - | - |
| 1777995469 | 29.44° C | 43% | 1017 hPa | - | - | - | - |
| 1777995169 | 28.89° C | 44% | 1017.3 hPa | - | - | - | - |
* Rain since midnight (hover to see other rain measurements)
** Current wind speed in m/s (hover to see current wind gust speed)